Weather History for Langdon, ND

Change the Weather History Date:

Monday, April 8, 2013

  Actual Average (KDVL) Record (KDVL)
Temperature  
Mean Temperature 14 °F -  
Max Temperature 23 °F 48 °F 71 °F (2005)
Min Temperature 5 °F 28 °F 4 °F (1956)
Degree Days  
Heating Degree Days 50    
Moisture  
Dew Point 11 °F    
Average Humidity 84    
Maximum Humidity 100    
Minimum Humidity 68    
Precipitation  
Precipitation 0.00 in - - ()
Sea Level Pressure  
Sea Level Pressure 30.04 in    
Wind  
Wind Speed 19 mph (NNE)    
Max Wind Speed 26 mph    
Max Gust Speed 34 mph    
Visibility 9 miles    
Events Snow    
Averages and records for this station are not official NWS values.
T = Trace of Precipitation, MM = Missing Value Source: NWS Daily Summary

Daily Weather History Graph

Daily Weather History Graph

Search for Another Location

Airport:

Trip Planner

Search our weather history database for the weather conditions in past years. The results will help you decide how hot, cold, wet, or windy it might be!

Date:

Astronomy

Apr. 08, 2013 Rise Set
Actual Time 6:56 AM CDT 8:15 PM CDT
Civil Twilight 6:23 AM CDT 8:47 PM CDT
Nautical Twilight 5:44 AM CDT 9:27 PM CDT
Astronomical Twilight 5:02 AM CDT 10:09 PM CDT
Moon 5:54 AM CDT (4/8) 6:46 PM CDT (4/8)
Length of Visible Light 14h 24m
Length of Day
13h 19m
Waning Crescent, 3% of the Moon is Illuminated
Apr 8
Waning Crescent
Apr 10
New
Apr 18
First Quarter
Apr 25
Full
May 2
Last Quarter

Hourly Weather History & Observations

Time (CDT) Temp. Windchill Dew Point Humidity Pressure Visibility Wind Dir Wind Speed Gust Speed Precip Events Conditions
12:15 AM 23.0 °F 10.6 °F 23.0 °F 100% 29.83 in 4.0 mi NE 13.8 mph - N/A   Overcast
12:35 AM 23.0 °F 9.6 °F 23.0 °F 100% 29.83 in 5.0 mi NE 16.1 mph 21.9 mph N/A   Overcast
12:55 AM 23.0 °F 8.7 °F 23.0 °F 100% 29.84 in 5.0 mi NE 18.4 mph 24.2 mph N/A   Overcast
1:15 AM 21.2 °F 6.8 °F 21.2 °F 100% 29.85 in 8.0 mi NE 17.3 mph - N/A   Overcast
1:35 AM 21.2 °F 6.8 °F 21.2 °F 100% 29.85 in 10.0 mi NE 17.3 mph 24.2 mph N/A   Overcast
1:55 AM 19.4 °F 4.1 °F 19.4 °F 100% 29.86 in 5.0 mi NE 18.4 mph 23.0 mph N/A   Overcast
2:15 AM 19.4 °F 4.5 °F 19.4 °F 100% 29.87 in 9.0 mi NE 17.3 mph - N/A   Overcast
2:35 AM 19.4 °F 3.6 °F 19.4 °F 100% 29.87 in 9.0 mi NE 19.6 mph 24.2 mph N/A   Overcast
2:55 AM 19.4 °F 4.1 °F 19.4 °F 100% 29.87 in 8.0 mi NE 18.4 mph 25.3 mph N/A   Overcast
3:15 AM 19.4 °F 2.5 °F 19.4 °F 100% 29.87 in 5.0 mi NE 23.0 mph 28.8 mph N/A   Overcast
3:35 AM 17.6 °F 0.9 °F 17.6 °F 100% 29.87 in 5.0 mi NE 20.7 mph 27.6 mph N/A   Overcast
3:55 AM 17.6 °F 0.5 °F 17.6 °F 100% 29.87 in 4.0 mi NNE 21.9 mph - N/A   Overcast
4:15 AM 17.6 °F 0.5 °F 15.8 °F 93% 29.88 in 10.0 mi NE 21.9 mph 27.6 mph N/A   Overcast
4:35 AM 15.8 °F -1.1 °F 14.0 °F 93% 29.89 in 10.0 mi NE 19.6 mph - N/A   Overcast
4:55 AM 15.8 °F -0.6 °F 14.0 °F 93% 29.89 in 9.0 mi NE 18.4 mph 26.5 mph N/A   Overcast
5:15 AM 15.8 °F -1.1 °F 14.0 °F 93% 29.90 in 10.0 mi NE 19.6 mph - N/A   Overcast
5:35 AM 15.8 °F -2.3 °F 14.0 °F 93% 29.91 in 10.0 mi NNE 23.0 mph 29.9 mph N/A   Overcast
5:55 AM 15.8 °F -0.6 °F 14.0 °F 93% 29.92 in 10.0 mi NNE 18.4 mph 25.3 mph N/A   Overcast
6:15 AM 15.8 °F -1.5 °F 12.2 °F 86% 29.92 in 10.0 mi NNE 20.7 mph - N/A   Overcast
6:35 AM 15.8 °F -1.1 °F 12.2 °F 86% 29.93 in 10.0 mi NNE 19.6 mph 26.5 mph N/A   Overcast
6:55 AM 15.8 °F -0.6 °F 14.0 °F 93% 29.93 in 10.0 mi NNE 18.4 mph 24.2 mph N/A   Overcast
7:15 AM 15.8 °F -1.5 °F 14.0 °F 93% 29.93 in 10.0 mi NNE 20.7 mph - N/A   Overcast
7:35 AM 15.8 °F -2.3 °F 14.0 °F 93% 29.94 in 7.0 mi NNE 23.0 mph - N/A   Overcast
7:55 AM 15.8 °F -0.2 °F 14.0 °F 93% 29.95 in 5.0 mi NNE 17.3 mph 29.9 mph N/A   Overcast
8:15 AM 15.8 °F -2.3 °F 14.0 °F 93% 29.95 in 4.0 mi NNE 23.0 mph 27.6 mph N/A   Overcast
8:35 AM 15.8 °F -1.5 °F 14.0 °F 93% 29.96 in 7.0 mi NNE 20.7 mph 26.5 mph N/A   Overcast
8:55 AM 15.8 °F -0.6 °F 12.2 °F 86% 29.97 in 10.0 mi North 18.4 mph 24.2 mph N/A   Overcast
9:15 AM 15.8 °F -1.5 °F 12.2 °F 86% 29.98 in 10.0 mi North 20.7 mph - N/A   Overcast
9:35 AM 15.8 °F -1.5 °F 12.2 °F 86% 29.98 in 9.0 mi North 20.7 mph - N/A Snow Light Snow
9:55 AM 15.8 °F -1.5 °F 12.2 °F 86% 29.98 in 10.0 mi North 20.7 mph 25.3 mph N/A   Overcast
10:15 AM 15.8 °F -1.9 °F 12.2 °F 86% 29.99 in 7.0 mi North 21.9 mph 26.5 mph N/A   Overcast
10:35 AM 15.8 °F -1.9 °F 12.2 °F 86% 29.99 in 7.0 mi North 21.9 mph - N/A   Overcast
10:55 AM 15.8 °F -1.9 °F 12.2 °F 86% 29.99 in 4.0 mi North 21.9 mph - N/A   Overcast
11:15 AM 17.6 °F -0.6 °F 14.0 °F 86% 30.00 in 5.0 mi North 25.3 mph 29.9 mph N/A   Overcast
11:35 AM 17.6 °F 0.1 °F 12.2 °F 79% 30.01 in 7.0 mi North 23.0 mph 34.5 mph N/A   Overcast
11:55 AM 17.6 °F -0.3 °F 14.0 °F 86% 30.02 in 10.0 mi North 24.2 mph 29.9 mph N/A   Overcast
12:15 PM 17.6 °F -1.0 °F 12.2 °F 79% 30.03 in 10.0 mi North 26.5 mph - N/A   Overcast
12:35 PM 17.6 °F -0.3 °F 12.2 °F 79% 30.04 in 10.0 mi North 24.2 mph - N/A   Overcast
12:55 PM 17.6 °F 0.5 °F 12.2 °F 79% 30.05 in 10.0 mi North 21.9 mph 28.8 mph N/A   Overcast
1:15 PM 17.6 °F -0.3 °F 10.4 °F 73% 30.05 in 10.0 mi North 24.2 mph - N/A   Mostly Cloudy
1:35 PM 17.6 °F 0.9 °F 12.2 °F 79% 30.08 in 10.0 mi North 20.7 mph 27.6 mph N/A   Mostly Cloudy
1:55 PM 17.6 °F 0.9 °F 10.4 °F 73% 30.08 in 10.0 mi North 20.7 mph - N/A   Overcast
2:15 PM 17.6 °F 0.1 °F 10.4 °F 73% 30.09 in 10.0 mi North 23.0 mph 28.8 mph N/A   Scattered Clouds
2:35 PM 17.6 °F 0.9 °F 10.4 °F 73% 30.10 in 10.0 mi North 20.7 mph - N/A   Partly Cloudy
2:55 PM 17.6 °F 0.1 °F 10.4 °F 73% 30.10 in 10.0 mi North 23.0 mph - N/A   Scattered Clouds
3:15 PM 15.8 °F -2.3 °F 10.4 °F 79% 30.11 in 10.0 mi North 23.0 mph - N/A   Partly Cloudy
3:35 PM 15.8 °F -1.1 °F 10.4 °F 79% 30.12 in 10.0 mi North 19.6 mph - N/A   Partly Cloudy
3:55 PM 15.8 °F -2.7 °F 8.6 °F 73% 30.12 in 10.0 mi North 24.2 mph - N/A   Partly Cloudy
4:15 PM 15.8 °F -1.5 °F 8.6 °F 73% 30.13 in 10.0 mi North 20.7 mph 27.6 mph N/A   Clear
4:35 PM 17.6 °F 0.1 °F 8.6 °F 68% 30.14 in 10.0 mi North 23.0 mph - N/A   Partly Cloudy
4:55 PM 15.8 °F -1.5 °F 8.6 °F 73% 30.15 in 10.0 mi North 20.7 mph - N/A   Mostly Cloudy
5:15 PM 15.8 °F -1.1 °F 8.6 °F 73% 30.14 in 10.0 mi North 19.6 mph - N/A   Overcast
5:35 PM 15.8 °F -1.5 °F 8.6 °F 73% 30.15 in 10.0 mi North 20.7 mph - N/A   Scattered Clouds
5:55 PM 15.8 °F -1.1 °F 10.4 °F 79% 30.15 in 10.0 mi North 19.6 mph - N/A   Scattered Clouds
6:15 PM 15.8 °F -1.1 °F 8.6 °F 73% 30.15 in 10.0 mi North 19.6 mph - N/A   Scattered Clouds
6:35 PM 15.8 °F -0.2 °F 8.6 °F 73% 30.17 in 10.0 mi North 17.3 mph - N/A   Partly Cloudy
6:55 PM 15.8 °F 0.3 °F 8.6 °F 73% 30.19 in 10.0 mi North 16.1 mph 21.9 mph N/A   Clear
7:15 PM 14.0 °F -2.5 °F 8.6 °F 79% 30.18 in 10.0 mi North 17.3 mph - N/A   Clear
7:35 PM 14.0 °F -2.5 °F 6.8 °F 73% 30.19 in 10.0 mi North 17.3 mph - N/A   Clear
7:55 PM 14.0 °F -2.0 °F 6.8 °F 73% 30.20 in 10.0 mi North 16.1 mph - N/A   Clear
8:15 PM 12.2 °F -3.7 °F 6.8 °F 79% 30.21 in 10.0 mi North 15.0 mph - N/A   Clear
8:35 PM 10.4 °F -5.4 °F 5.0 °F 79% 30.23 in 10.0 mi North 13.8 mph - N/A   Clear
8:55 PM 10.4 °F -4.8 °F 5.0 °F 79% 30.24 in 10.0 mi North 12.7 mph - N/A   Clear
9:15 PM 8.6 °F -7.0 °F 5.0 °F 85% 30.24 in 10.0 mi North 12.7 mph - N/A   Clear
9:35 PM 8.6 °F -7.0 °F 3.2 °F 79% 30.24 in 10.0 mi North 12.7 mph - N/A   Clear
9:55 PM 8.6 °F -7.0 °F 1.4 °F 73% 30.25 in 10.0 mi North 12.7 mph - N/A   Clear
10:15 PM 8.6 °F -6.3 °F 1.4 °F 73% 30.26 in 10.0 mi North 11.5 mph - N/A   Clear
10:35 PM 8.6 °F -5.5 °F 1.4 °F 73% 30.26 in 10.0 mi North 10.4 mph - N/A   Clear
10:55 PM 6.8 °F -8.6 °F 1.4 °F 79% 30.26 in 10.0 mi North 11.5 mph - N/A   Clear
11:15 PM 6.8 °F -3.5 °F -0.4 °F 72% 30.28 in 10.0 mi North 5.8 mph - N/A   Clear
11:35 PM 6.8 °F -0.1 °F -0.4 °F 72% 30.28 in 10.0 mi NW 3.5 mph - N/A   Clear
11:55 PM 5.0 °F -6.9 °F -0.4 °F 78% 30.29 in 10.0 mi NW 6.9 mph - N/A   Clear